sensor_id;sensor_type;location;lat;lon;timestamp;P1;durP1;ratioP1;P2;durP2;ratioP2
63818;SDS011;49970;54.976;73.248;2023-07-08T00:00:52;17.50;;;11.77;;
63818;SDS011;49970;54.976;73.248;2023-07-08T00:03:19;13.00;;;11.30;;
63818;SDS011;49970;54.976;73.248;2023-07-08T00:05:47;20.63;;;11.82;;
63818;SDS011;49970;54.976;73.248;2023-07-08T00:08:16;19.83;;;12.82;;
63818;SDS011;49970;54.976;73.248;2023-07-08T00:10:44;21.80;;;11.80;;
63818;SDS011;49970;54.976;73.248;2023-07-08T00:13:11;14.68;;;12.57;;
63818;SDS011;49970;54.976;73.248;2023-07-08T00:15:38;17.45;;;11.45;;
63818;SDS011;49970;54.976;73.248;2023-07-08T00:18:12;14.45;;;10.88;;
63818;SDS011;49970;54.976;73.248;2023-07-08T00:20:47;17.20;;;11.27;;
63818;SDS011;49970;54.976;73.248;2023-07-08T00:23:14;15.10;;;12.32;;
63818;SDS011;49970;54.976;73.248;2023-07-08T00:25:41;27.38;;;12.55;;
63818;SDS011;49970;54.976;73.248;2023-07-08T00:28:09;19.48;;;13.02;;
63818;SDS011;49970;54.976;73.248;2023-07-08T00:30:37;17.55;;;11.63;;
63818;SDS011;49970;54.976;73.248;2023-07-08T00:33:05;13.30;;;11.93;;
63818;SDS011;49970;54.976;73.248;2023-07-08T00:38:02;21.05;;;11.23;;
63818;SDS011;49970;54.976;73.248;2023-07-08T00:43:38;13.82;;;12.13;;
63818;SDS011;49970;54.976;73.248;2023-07-08T00:48:56;26.88;;;12.68;;
63818;SDS011;49970;54.976;73.248;2023-07-08T00:51:37;16.38;;;11.52;;
63818;SDS011;49970;54.976;73.248;2023-07-08T00:55:28;22.98;;;12.85;;
63818;SDS011;49970;54.976;73.248;2023-07-08T00:57:54;22.10;;;12.10;;
63818;SDS011;49970;54.976;73.248;2023-07-08T01:00:21;18.77;;;11.77;;
63818;SDS011;49970;54.976;73.248;2023-07-08T01:02:48;18.80;;;12.77;;
63818;SDS011;49970;54.976;73.248;2023-07-08T01:05:22;23.27;;;13.32;;
63818;SDS011;49970;54.976;73.248;2023-07-08T01:07:52;23.50;;;13.00;;
63818;SDS011;49970;54.976;73.248;2023-07-08T01:10:25;20.75;;;12.88;;
63818;SDS011;49970;54.976;73.248;2023-07-08T01:12:55;21.70;;;12.98;;
63818;SDS011;49970;54.976;73.248;2023-07-08T01:15:31;14.85;;;12.45;;
63818;SDS011;49970;54.976;73.248;2023-07-08T01:18:03;29.80;;;12.18;;
63818;SDS011;49970;54.976;73.248;2023-07-08T01:20:29;21.17;;;11.80;;
63818;SDS011;49970;54.976;73.248;2023-07-08T01:22:56;17.42;;;11.98;;
63818;SDS011;49970;54.976;73.248;2023-07-08T01:25:23;23.92;;;12.75;;
63818;SDS011;49970;54.976;73.248;2023-07-08T01:27:52;20.92;;;13.35;;
63818;SDS011;49970;54.976;73.248;2023-07-08T01:30:20;19.25;;;12.07;;
63818;SDS011;49970;54.976;73.248;2023-07-08T01:32:50;26.30;;;12.43;;
63818;SDS011;49970;54.976;73.248;2023-07-08T01:35:22;14.55;;;11.82;;
63818;SDS011;49970;54.976;73.248;2023-07-08T01:37:49;21.95;;;13.40;;
63818;SDS011;49970;54.976;73.248;2023-07-08T01:40:28;23.42;;;12.10;;
63818;SDS011;49970;54.976;73.248;2023-07-08T01:43:00;19.92;;;13.35;;
63818;SDS011;49970;54.976;73.248;2023-07-08T01:45:28;18.15;;;12.23;;
63818;SDS011;49970;54.976;73.248;2023-07-08T01:48:07;16.17;;;12.40;;
63818;SDS011;49970;54.976;73.248;2023-07-08T01:50:38;25.90;;;12.70;;
63818;SDS011;49970;54.976;73.248;2023-07-08T01:53:12;19.88;;;12.48;;
63818;SDS011;49970;54.976;73.248;2023-07-08T01:55:45;21.13;;;11.18;;
63818;SDS011;49970;54.976;73.248;2023-07-08T01:58:11;12.30;;;10.43;;
63818;SDS011;49970;54.976;73.248;2023-07-08T02:00:38;14.70;;;11.18;;
63818;SDS011;49970;54.976;73.248;2023-07-08T02:03:04;15.65;;;10.73;;
63818;SDS011;49970;54.976;73.248;2023-07-08T02:05:30;23.33;;;11.18;;
63818;SDS011;49970;54.976;73.248;2023-07-08T02:07:56;14.32;;;10.30;;
63818;SDS011;49970;54.976;73.248;2023-07-08T02:10:23;21.27;;;10.35;;
63818;SDS011;49970;54.976;73.248;2023-07-08T02:12:51;17.17;;;10.57;;
63818;SDS011;49970;54.976;73.248;2023-07-08T02:15:17;18.13;;;11.48;;
63818;SDS011;49970;54.976;73.248;2023-07-08T02:17:43;14.45;;;9.70;;
63818;SDS011;49970;54.976;73.248;2023-07-08T02:20:10;11.02;;;9.80;;
63818;SDS011;49970;54.976;73.248;2023-07-08T02:22:36;13.70;;;9.38;;
63818;SDS011;49970;54.976;73.248;2023-07-08T02:25:02;12.52;;;8.77;;
63818;SDS011;49970;54.976;73.248;2023-07-08T02:27:29;23.58;;;9.95;;
63818;SDS011;49970;54.976;73.248;2023-07-08T02:29:55;14.50;;;8.45;;
63818;SDS011;49970;54.976;73.248;2023-07-08T02:32:21;15.93;;;8.50;;
63818;SDS011;49970;54.976;73.248;2023-07-08T02:34:48;18.48;;;8.73;;
63818;SDS011;49970;54.976;73.248;2023-07-08T02:37:14;27.67;;;9.75;;
63818;SDS011;49970;54.976;73.248;2023-07-08T02:39:40;15.38;;;8.57;;
63818;SDS011;49970;54.976;73.248;2023-07-08T02:42:06;10.18;;;7.93;;
63818;SDS011;49970;54.976;73.248;2023-07-08T02:44:32;16.27;;;8.60;;
63818;SDS011;49970;54.976;73.248;2023-07-08T02:46:58;12.35;;;8.88;;
63818;SDS011;49970;54.976;73.248;2023-07-08T02:49:25;20.65;;;8.35;;
63818;SDS011;49970;54.976;73.248;2023-07-08T02:51:52;11.52;;;7.90;;
63818;SDS011;49970;54.976;73.248;2023-07-08T02:54:18;20.95;;;7.50;;
63818;SDS011;49970;54.976;73.248;2023-07-08T02:56:45;20.95;;;8.60;;
63818;SDS011;49970;54.976;73.248;2023-07-08T02:59:11;18.85;;;7.38;;
63818;SDS011;49970;54.976;73.248;2023-07-08T03:01:37;11.60;;;7.38;;
63818;SDS011;49970;54.976;73.248;2023-07-08T03:04:07;16.75;;;7.45;;
63818;SDS011;49970;54.976;73.248;2023-07-08T03:06:41;13.57;;;7.28;;
63818;SDS011;49970;54.976;73.248;2023-07-08T03:09:09;22.88;;;7.63;;
63818;SDS011;49970;54.976;73.248;2023-07-08T03:11:37;8.98;;;7.13;;
63818;SDS011;49970;54.976;73.248;2023-07-08T03:14:05;15.73;;;7.18;;
63818;SDS011;49970;54.976;73.248;2023-07-08T03:16:32;17.05;;;7.18;;
63818;SDS011;49970;54.976;73.248;2023-07-08T03:18:58;14.95;;;7.20;;
63818;SDS011;49970;54.976;73.248;2023-07-08T03:21:25;23.75;;;7.22;;
63818;SDS011;49970;54.976;73.248;2023-07-08T03:23:51;9.02;;;6.15;;
63818;SDS011;49970;54.976;73.248;2023-07-08T03:26:21;9.65;;;5.63;;
63818;SDS011;49970;54.976;73.248;2023-07-08T03:31:17;18.05;;;5.53;;
63818;SDS011;49970;54.976;73.248;2023-07-08T03:33:44;15.68;;;5.90;;
63818;SDS011;49970;54.976;73.248;2023-07-08T03:36:14;13.05;;;5.40;;
63818;SDS011;49970;54.976;73.248;2023-07-08T03:38:52;13.60;;;5.70;;
63818;SDS011;49970;54.976;73.248;2023-07-08T03:41:21;7.95;;;5.00;;
63818;SDS011;49970;54.976;73.248;2023-07-08T03:45:12;16.15;;;4.88;;
63818;SDS011;49970;54.976;73.248;2023-07-08T03:47:39;17.00;;;5.30;;
63818;SDS011;49970;54.976;73.248;2023-07-08T03:50:19;16.17;;;4.93;;
63818;SDS011;49970;54.976;73.248;2023-07-08T03:52:51;23.30;;;5.05;;
63818;SDS011;49970;54.976;73.248;2023-07-08T03:55:22;12.50;;;4.68;;
63818;SDS011;49970;54.976;73.248;2023-07-08T03:57:48;10.18;;;4.78;;
63818;SDS011;49970;54.976;73.248;2023-07-08T04:00:16;9.38;;;4.63;;
63818;SDS011;49970;54.976;73.248;2023-07-08T04:02:42;13.43;;;4.90;;
63818;SDS011;49970;54.976;73.248;2023-07-08T04:05:17;10.60;;;4.82;;
63818;SDS011;49970;54.976;73.248;2023-07-08T04:08:47;7.03;;;4.40;;
63818;SDS011;49970;54.976;73.248;2023-07-08T04:12:38;8.93;;;4.75;;
63818;SDS011;49970;54.976;73.248;2023-07-08T04:15:06;8.95;;;3.60;;
63818;SDS011;49970;54.976;73.248;2023-07-08T04:17:35;12.68;;;4.15;;
63818;SDS011;49970;54.976;73.248;2023-07-08T04:20:14;6.55;;;4.60;;
63818;SDS011;49970;54.976;73.248;2023-07-08T04:22:44;15.40;;;3.78;;
63818;SDS011;49970;54.976;73.248;2023-07-08T04:25:11;6.45;;;3.72;;
63818;SDS011;49970;54.976;73.248;2023-07-08T04:27:39;22.92;;;3.92;;
63818;SDS011;49970;54.976;73.248;2023-07-08T04:30:06;13.95;;;3.60;;
63818;SDS011;49970;54.976;73.248;2023-07-08T04:32:33;9.88;;;4.30;;
63818;SDS011;49970;54.976;73.248;2023-07-08T04:34:59;14.30;;;3.20;;
63818;SDS011;49970;54.976;73.248;2023-07-08T04:37:25;9.40;;;3.47;;
63818;SDS011;49970;54.976;73.248;2023-07-08T04:40:56;22.75;;;3.05;;
63818;SDS011;49970;54.976;73.248;2023-07-08T04:43:24;10.77;;;2.80;;
63818;SDS011;49970;54.976;73.248;2023-07-08T04:45:54;16.40;;;2.58;;
63818;SDS011;49970;54.976;73.248;2023-07-08T04:48:23;11.25;;;3.05;;
63818;SDS011;49970;54.976;73.248;2023-07-08T04:50:50;19.17;;;2.75;;
63818;SDS011;49970;54.976;73.248;2023-07-08T04:53:18;19.17;;;2.22;;
63818;SDS011;49970;54.976;73.248;2023-07-08T04:55:46;10.23;;;2.28;;
63818;SDS011;49970;54.976;73.248;2023-07-08T04:58:17;6.85;;;2.40;;
63818;SDS011;49970;54.976;73.248;2023-07-08T05:00:44;6.05;;;2.38;;
63818;SDS011;49970;54.976;73.248;2023-07-08T05:03:10;5.80;;;2.35;;
63818;SDS011;49970;54.976;73.248;2023-07-08T05:05:36;9.88;;;2.40;;
63818;SDS011;49970;54.976;73.248;2023-07-08T05:08:03;8.23;;;2.00;;
63818;SDS011;49970;54.976;73.248;2023-07-08T05:10:29;24.60;;;2.60;;
63818;SDS011;49970;54.976;73.248;2023-07-08T05:12:55;13.73;;;2.72;;
63818;SDS011;49970;54.976;73.248;2023-07-08T05:15:35;15.57;;;2.70;;
63818;SDS011;49970;54.976;73.248;2023-07-08T05:18:01;8.07;;;2.53;;
63818;SDS011;49970;54.976;73.248;2023-07-08T05:20:28;17.52;;;2.25;;
63818;SDS011;49970;54.976;73.248;2023-07-08T05:22:58;8.23;;;2.42;;
63818;SDS011;49970;54.976;73.248;2023-07-08T05:25:24;40.45;;;3.70;;
63818;SDS011;49970;54.976;73.248;2023-07-08T05:27:50;16.95;;;2.72;;
63818;SDS011;49970;54.976;73.248;2023-07-08T05:30:17;16.90;;;2.30;;
63818;SDS011;49970;54.976;73.248;2023-07-08T05:32:44;26.73;;;2.70;;
63818;SDS011;49970;54.976;73.248;2023-07-08T05:35:10;14.30;;;2.33;;
63818;SDS011;49970;54.976;73.248;2023-07-08T05:37:37;19.90;;;2.67;;
63818;SDS011;49970;54.976;73.248;2023-07-08T05:40:06;55.15;;;5.55;;
63818;SDS011;49970;54.976;73.248;2023-07-08T05:42:36;74.50;;;7.80;;
63818;SDS011;49970;54.976;73.248;2023-07-08T05:45:03;16.42;;;3.58;;
63818;SDS011;49970;54.976;73.248;2023-07-08T05:47:32;11.20;;;3.45;;
63818;SDS011;49970;54.976;73.248;2023-07-08T05:49:58;10.57;;;2.95;;
63818;SDS011;49970;54.976;73.248;2023-07-08T05:52:24;48.97;;;4.50;;
63818;SDS011;49970;54.976;73.248;2023-07-08T05:54:51;25.92;;;2.95;;
63818;SDS011;49970;54.976;73.248;2023-07-08T05:57:17;34.90;;;3.00;;
63818;SDS011;49970;54.976;73.248;2023-07-08T05:59:46;3.55;;;2.28;;
63818;SDS011;49970;54.976;73.248;2023-07-08T06:02:13;12.57;;;2.67;;
63818;SDS011;49970;54.976;73.248;2023-07-08T06:04:39;11.63;;;2.67;;
63818;SDS011;49970;54.976;73.248;2023-07-08T06:07:06;58.38;;;6.13;;
63818;SDS011;49970;54.976;73.248;2023-07-08T06:09:32;43.95;;;7.28;;
63818;SDS011;49970;54.976;73.248;2023-07-08T06:11:58;21.95;;;4.18;;
63818;SDS011;49970;54.976;73.248;2023-07-08T06:14:26;53.63;;;5.47;;
63818;SDS011;49970;54.976;73.248;2023-07-08T06:16:52;23.52;;;4.47;;
63818;SDS011;49970;54.976;73.248;2023-07-08T06:19:20;20.67;;;4.45;;
63818;SDS011;49970;54.976;73.248;2023-07-08T06:21:47;33.45;;;5.72;;
63818;SDS011;49970;54.976;73.248;2023-07-08T06:24:13;34.97;;;4.65;;
63818;SDS011;49970;54.976;73.248;2023-07-08T06:26:39;14.40;;;2.83;;
63818;SDS011;49970;54.976;73.248;2023-07-08T06:29:05;19.23;;;3.30;;
63818;SDS011;49970;54.976;73.248;2023-07-08T06:33:21;12.30;;;2.83;;
63818;SDS011;49970;54.976;73.248;2023-07-08T06:35:48;23.02;;;3.10;;
63818;SDS011;49970;54.976;73.248;2023-07-08T06:38:15;19.27;;;2.53;;
63818;SDS011;49970;54.976;73.248;2023-07-08T06:40:41;17.35;;;2.80;;
63818;SDS011;49970;54.976;73.248;2023-07-08T06:43:08;7.82;;;2.63;;
63818;SDS011;49970;54.976;73.248;2023-07-08T06:45:40;14.77;;;3.08;;
63818;SDS011;49970;54.976;73.248;2023-07-08T06:48:08;12.50;;;3.42;;
63818;SDS011;49970;54.976;73.248;2023-07-08T06:51:10;41.75;;;5.50;;
63818;SDS011;49970;54.976;73.248;2023-07-08T06:53:36;60.53;;;6.03;;
63818;SDS011;49970;54.976;73.248;2023-07-08T06:56:02;25.05;;;3.45;;
63818;SDS011;49970;54.976;73.248;2023-07-08T06:58:29;13.93;;;3.05;;
63818;SDS011;49970;54.976;73.248;2023-07-08T07:00:55;32.33;;;4.05;;
63818;SDS011;49970;54.976;73.248;2023-07-08T07:03:21;24.60;;;4.18;;
63818;SDS011;49970;54.976;73.248;2023-07-08T07:05:47;26.55;;;3.45;;
63818;SDS011;49970;54.976;73.248;2023-07-08T07:08:14;19.65;;;3.13;;
63818;SDS011;49970;54.976;73.248;2023-07-08T07:10:41;45.50;;;4.78;;
63818;SDS011;49970;54.976;73.248;2023-07-08T07:13:07;29.17;;;3.88;;
63818;SDS011;49970;54.976;73.248;2023-07-08T07:15:34;16.95;;;3.03;;
63818;SDS011;49970;54.976;73.248;2023-07-08T07:18:00;27.25;;;3.70;;
63818;SDS011;49970;54.976;73.248;2023-07-08T07:20:27;35.83;;;4.75;;
63818;SDS011;49970;54.976;73.248;2023-07-08T07:22:54;41.05;;;5.45;;
63818;SDS011;49970;54.976;73.248;2023-07-08T07:25:21;37.40;;;5.80;;
63818;SDS011;49970;54.976;73.248;2023-07-08T07:27:47;40.65;;;5.53;;
63818;SDS011;49970;54.976;73.248;2023-07-08T07:30:14;32.88;;;3.42;;
63818;SDS011;49970;54.976;73.248;2023-07-08T07:32:41;15.23;;;2.95;;
63818;SDS011;49970;54.976;73.248;2023-07-08T07:35:08;17.13;;;3.28;;
63818;SDS011;49970;54.976;73.248;2023-07-08T07:37:40;13.93;;;3.03;;
63818;SDS011;49970;54.976;73.248;2023-07-08T07:40:08;42.72;;;6.15;;
63818;SDS011;49970;54.976;73.248;2023-07-08T07:45:08;6.05;;;2.50;;
63818;SDS011;49970;54.976;73.248;2023-07-08T07:49:00;3.50;;;2.20;;
63818;SDS011;49970;54.976;73.248;2023-07-08T07:51:26;8.85;;;2.83;;
63818;SDS011;49970;54.976;73.248;2023-07-08T07:53:53;10.07;;;2.33;;
63818;SDS011;49970;54.976;73.248;2023-07-08T07:56:19;3.05;;;2.45;;
63818;SDS011;49970;54.976;73.248;2023-07-08T07:58:45;9.73;;;2.10;;
63818;SDS011;49970;54.976;73.248;2023-07-08T08:01:11;12.30;;;3.00;;
63818;SDS011;49970;54.976;73.248;2023-07-08T08:03:39;4.22;;;2.40;;
63818;SDS011;49970;54.976;73.248;2023-07-08T08:06:05;10.02;;;2.30;;
63818;SDS011;49970;54.976;73.248;2023-07-08T08:08:31;14.50;;;3.20;;
63818;SDS011;49970;54.976;73.248;2023-07-08T08:10:57;45.80;;;6.32;;
63818;SDS011;49970;54.976;73.248;2023-07-08T08:13:23;22.98;;;4.60;;
63818;SDS011;49970;54.976;73.248;2023-07-08T08:15:55;11.23;;;3.13;;
63818;SDS011;49970;54.976;73.248;2023-07-08T08:18:22;12.10;;;2.90;;
63818;SDS011;49970;54.976;73.248;2023-07-08T08:20:50;7.35;;;2.70;;
63818;SDS011;49970;54.976;73.248;2023-07-08T08:23:17;8.57;;;2.47;;
63818;SDS011;49970;54.976;73.248;2023-07-08T08:25:43;16.23;;;2.97;;
63818;SDS011;49970;54.976;73.248;2023-07-08T08:28:09;18.02;;;4.25;;
63818;SDS011;49970;54.976;73.248;2023-07-08T08:30:35;18.70;;;3.05;;
63818;SDS011;49970;54.976;73.248;2023-07-08T08:33:02;11.55;;;2.70;;
63818;SDS011;49970;54.976;73.248;2023-07-08T08:35:28;12.70;;;2.25;;
63818;SDS011;49970;54.976;73.248;2023-07-08T08:37:54;10.90;;;2.40;;
63818;SDS011;49970;54.976;73.248;2023-07-08T08:40:21;21.40;;;2.80;;
63818;SDS011;49970;54.976;73.248;2023-07-08T08:42:58;13.60;;;3.13;;
63818;SDS011;49970;54.976;73.248;2023-07-08T08:45:28;43.50;;;5.88;;
63818;SDS011;49970;54.976;73.248;2023-07-08T08:48:02;25.13;;;3.40;;
63818;SDS011;49970;54.976;73.248;2023-07-08T08:53:08;12.30;;;3.63;;
63818;SDS011;49970;54.976;73.248;2023-07-08T08:55:38;50.35;;;5.80;;
63818;SDS011;49970;54.976;73.248;2023-07-08T09:00:57;10.32;;;2.67;;
63818;SDS011;49970;54.976;73.248;2023-07-08T09:06:29;7.43;;;2.30;;
63818;SDS011;49970;54.976;73.248;2023-07-08T09:09:22;2.08;;;1.80;;
63818;SDS011;49970;54.976;73.248;2023-07-08T09:11:57;10.63;;;2.33;;
63818;SDS011;49970;54.976;73.248;2023-07-08T09:14:31;12.85;;;5.20;;
63818;SDS011;49970;54.976;73.248;2023-07-08T09:22:34;6.13;;;3.03;;
63818;SDS011;49970;54.976;73.248;2023-07-08T09:27:39;14.80;;;3.22;;
63818;SDS011;49970;54.976;73.248;2023-07-08T09:30:07;15.98;;;3.22;;
63818;SDS011;49970;54.976;73.248;2023-07-08T09:32:39;11.68;;;2.97;;
63818;SDS011;49970;54.976;73.248;2023-07-08T09:35:07;6.32;;;2.33;;
63818;SDS011;49970;54.976;73.248;2023-07-08T09:37:36;7.63;;;2.33;;
63818;SDS011;49970;54.976;73.248;2023-07-08T09:40:10;3.80;;;2.55;;
63818;SDS011;49970;54.976;73.248;2023-07-08T09:42:56;12.57;;;2.65;;
63818;SDS011;49970;54.976;73.248;2023-07-08T09:45:43;8.00;;;2.15;;
63818;SDS011;49970;54.976;73.248;2023-07-08T09:48:54;4.45;;;2.35;;
63818;SDS011;49970;54.976;73.248;2023-07-08T09:51:02;7.22;;;2.47;;
63818;SDS011;49970;54.976;73.248;2023-07-08T09:53:30;15.15;;;2.67;;
63818;SDS011;49970;54.976;73.248;2023-07-08T09:55:56;20.52;;;2.70;;
63818;SDS011;49970;54.976;73.248;2023-07-08T10:01:01;10.43;;;2.00;;
63818;SDS011;49970;54.976;73.248;2023-07-08T10:03:35;10.18;;;2.17;;
63818;SDS011;49970;54.976;73.248;2023-07-08T10:06:04;2.40;;;2.20;;
63818;SDS011;49970;54.976;73.248;2023-07-08T10:08:40;8.80;;;2.47;;
63818;SDS011;49970;54.976;73.248;2023-07-08T10:11:25;11.13;;;2.83;;
63818;SDS011;49970;54.976;73.248;2023-07-08T10:13:54;5.25;;;3.15;;
63818;SDS011;49970;54.976;73.248;2023-07-08T10:18:55;10.05;;;2.40;;
63818;SDS011;49970;54.976;73.248;2023-07-08T10:24:20;2.40;;;2.20;;
63818;SDS011;49970;54.976;73.248;2023-07-08T10:27:22;9.35;;;3.67;;
63818;SDS011;49970;54.976;73.248;2023-07-08T10:35:28;13.57;;;3.45;;
63818;SDS011;49970;54.976;73.248;2023-07-08T10:41:12;6.28;;;2.45;;
63818;SDS011;49970;54.976;73.248;2023-07-08T10:43:58;11.45;;;2.58;;
63818;SDS011;49970;54.976;73.248;2023-07-08T10:46:33;15.18;;;2.95;;
63818;SDS011;49970;54.976;73.248;2023-07-08T11:09:22;10.85;;;3.45;;
63818;SDS011;49970;54.976;73.248;2023-07-08T11:11:55;14.98;;;5.07;;
63818;SDS011;49970;54.976;73.248;2023-07-08T11:14:27;13.10;;;3.25;;
63818;SDS011;49970;54.976;73.248;2023-07-08T11:17:14;6.72;;;3.95;;
63818;SDS011;49970;54.976;73.248;2023-07-08T11:19:48;6.53;;;4.78;;
63818;SDS011;49970;54.976;73.248;2023-07-08T11:22:22;7.63;;;5.47;;
63818;SDS011;49970;54.976;73.248;2023-07-08T11:24:49;7.70;;;3.53;;
63818;SDS011;49970;54.976;73.248;2023-07-08T11:27:21;10.85;;;3.50;;
63818;SDS011;49970;54.976;73.248;2023-07-08T11:32:34;9.60;;;3.58;;
63818;SDS011;49970;54.976;73.248;2023-07-08T11:35:02;13.07;;;3.92;;
63818;SDS011;49970;54.976;73.248;2023-07-08T11:37:31;20.48;;;4.22;;
63818;SDS011;49970;54.976;73.248;2023-07-08T11:42:40;7.68;;;3.85;;
63818;SDS011;49970;54.976;73.248;2023-07-08T11:47:46;14.52;;;3.40;;
63818;SDS011;49970;54.976;73.248;2023-07-08T11:50:25;13.38;;;2.80;;
63818;SDS011;49970;54.976;73.248;2023-07-08T11:53:09;13.43;;;1.90;;
63818;SDS011;49970;54.976;73.248;2023-07-08T12:01:32;12.02;;;2.20;;
63818;SDS011;49970;54.976;73.248;2023-07-08T12:03:39;7.97;;;1.90;;
63818;SDS011;49970;54.976;73.248;2023-07-08T12:08:56;6.05;;;1.70;;
63818;SDS011;49970;54.976;73.248;2023-07-08T12:11:28;4.20;;;2.08;;
63818;SDS011;49970;54.976;73.248;2023-07-08T12:13:59;3.58;;;1.90;;
63818;SDS011;49970;54.976;73.248;2023-07-08T12:16:29;7.18;;;2.00;;
63818;SDS011;49970;54.976;73.248;2023-07-08T12:18:57;3.75;;;2.85;;
63818;SDS011;49970;54.976;73.248;2023-07-08T12:21:25;10.85;;;4.30;;
63818;SDS011;49970;54.976;73.248;2023-07-08T12:23:53;12.65;;;2.45;;
63818;SDS011;49970;54.976;73.248;2023-07-08T12:26:21;5.82;;;1.90;;
63818;SDS011;49970;54.976;73.248;2023-07-08T12:28:47;12.23;;;2.72;;
63818;SDS011;49970;54.976;73.248;2023-07-08T12:31:17;9.65;;;1.85;;
63818;SDS011;49970;54.976;73.248;2023-07-08T12:33:49;5.85;;;1.48;;
63818;SDS011;49970;54.976;73.248;2023-07-08T12:36:30;7.50;;;2.05;;
63818;SDS011;49970;54.976;73.248;2023-07-08T12:38:59;10.13;;;1.80;;
63818;SDS011;49970;54.976;73.248;2023-07-08T12:42:48;21.30;;;1.60;;
63818;SDS011;49970;54.976;73.248;2023-07-08T12:45:16;4.88;;;1.50;;
63818;SDS011;49970;54.976;73.248;2023-07-08T12:47:45;18.02;;;2.05;;
63818;SDS011;49970;54.976;73.248;2023-07-08T12:50:12;14.00;;;2.13;;
63818;SDS011;49970;54.976;73.248;2023-07-08T12:52:38;5.15;;;1.40;;
63818;SDS011;49970;54.976;73.248;2023-07-08T12:56:55;2.38;;;1.00;;
63818;SDS011;49970;54.976;73.248;2023-07-08T13:00:46;3.55;;;1.40;;
63818;SDS011;49970;54.976;73.248;2023-07-08T13:04:37;9.07;;;1.40;;
63818;SDS011;49970;54.976;73.248;2023-07-08T13:07:04;7.80;;;1.50;;
63818;SDS011;49970;54.976;73.248;2023-07-08T13:09:36;9.63;;;1.65;;
63818;SDS011;49970;54.976;73.248;2023-07-08T13:13:25;5.03;;;1.10;;
63818;SDS011;49970;54.976;73.248;2023-07-08T13:16:28;6.63;;;0.90;;
63818;SDS011;49970;54.976;73.248;2023-07-08T13:19:00;3.58;;;1.10;;
63818;SDS011;49970;54.976;73.248;2023-07-08T13:21:29;9.40;;;1.48;;
63818;SDS011;49970;54.976;73.248;2023-07-08T13:24:00;8.68;;;1.20;;
63818;SDS011;49970;54.976;73.248;2023-07-08T13:26:32;8.98;;;1.10;;
63818;SDS011;49970;54.976;73.248;2023-07-08T13:29:11;9.20;;;1.33;;
63818;SDS011;49970;54.976;73.248;2023-07-08T13:31:52;4.63;;;1.00;;
63818;SDS011;49970;54.976;73.248;2023-07-08T13:34:23;12.32;;;1.23;;
63818;SDS011;49970;54.976;73.248;2023-07-08T13:36:53;3.72;;;1.10;;
63818;SDS011;49970;54.976;73.248;2023-07-08T13:39:26;3.08;;;1.35;;
63818;SDS011;49970;54.976;73.248;2023-07-08T13:41:57;2.70;;;1.48;;
63818;SDS011;49970;54.976;73.248;2023-07-08T13:44:27;2.30;;;1.85;;
63818;SDS011;49970;54.976;73.248;2023-07-08T13:46:56;14.15;;;2.22;;
63818;SDS011;49970;54.976;73.248;2023-07-08T13:49:47;14.63;;;2.03;;
63818;SDS011;49970;54.976;73.248;2023-07-08T13:52:20;9.35;;;2.00;;
63818;SDS011;49970;54.976;73.248;2023-07-08T13:54:49;8.90;;;2.03;;
63818;SDS011;49970;54.976;73.248;2023-07-08T13:57:22;10.50;;;1.77;;
63818;SDS011;49970;54.976;73.248;2023-07-08T13:59:54;13.23;;;1.73;;
63818;SDS011;49970;54.976;73.248;2023-07-08T14:02:22;11.13;;;1.50;;
63818;SDS011;49970;54.976;73.248;2023-07-08T14:04:51;12.75;;;1.27;;
63818;SDS011;49970;54.976;73.248;2023-07-08T14:07:19;2.38;;;1.10;;
63818;SDS011;49970;54.976;73.248;2023-07-08T14:09:48;20.48;;;1.80;;
63818;SDS011;49970;54.976;73.248;2023-07-08T14:12:15;23.80;;;1.52;;
63818;SDS011;49970;54.976;73.248;2023-07-08T14:14:41;7.85;;;1.23;;
63818;SDS011;49970;54.976;73.248;2023-07-08T14:17:08;4.47;;;1.30;;
63818;SDS011;49970;54.976;73.248;2023-07-08T14:19:38;10.90;;;2.40;;
63818;SDS011;49970;54.976;73.248;2023-07-08T14:24:33;3.05;;;1.40;;
63818;SDS011;49970;54.976;73.248;2023-07-08T14:26:59;7.35;;;1.75;;
63818;SDS011;49970;54.976;73.248;2023-07-08T14:29:25;6.38;;;1.50;;
63818;SDS011;49970;54.976;73.248;2023-07-08T14:31:51;7.70;;;1.30;;
63818;SDS011;49970;54.976;73.248;2023-07-08T14:34:24;13.90;;;1.95;;
63818;SDS011;49970;54.976;73.248;2023-07-08T14:36:53;4.32;;;1.75;;
63818;SDS011;49970;54.976;73.248;2023-07-08T14:39:19;9.98;;;2.00;;
63818;SDS011;49970;54.976;73.248;2023-07-08T14:41:47;8.50;;;2.60;;
63818;SDS011;49970;54.976;73.248;2023-07-08T14:44:19;2.75;;;2.05;;
63818;SDS011;49970;54.976;73.248;2023-07-08T14:46:51;12.07;;;2.42;;
63818;SDS011;49970;54.976;73.248;2023-07-08T14:49:20;18.02;;;2.40;;
63818;SDS011;49970;54.976;73.248;2023-07-08T14:51:47;13.40;;;2.47;;
63818;SDS011;49970;54.976;73.248;2023-07-08T14:54:14;7.95;;;2.33;;
63818;SDS011;49970;54.976;73.248;2023-07-08T14:56:40;8.95;;;1.95;;
63818;SDS011;49970;54.976;73.248;2023-07-08T14:59:26;16.25;;;2.58;;
63818;SDS011;49970;54.976;73.248;2023-07-08T15:01:54;18.90;;;2.60;;
63818;SDS011;49970;54.976;73.248;2023-07-08T15:04:23;667.58;;;40.10;;
63818;SDS011;49970;54.976;73.248;2023-07-08T15:06:57;16.88;;;2.97;;
63818;SDS011;49970;54.976;73.248;2023-07-08T15:09:25;20.02;;;2.58;;
63818;SDS011;49970;54.976;73.248;2023-07-08T15:11:51;9.68;;;2.30;;
63818;SDS011;49970;54.976;73.248;2023-07-08T15:14:24;9.77;;;2.03;;
63818;SDS011;49970;54.976;73.248;2023-07-08T15:16:51;9.88;;;2.35;;
63818;SDS011;49970;54.976;73.248;2023-07-08T15:19:19;4.47;;;2.22;;
63818;SDS011;49970;54.976;73.248;2023-07-08T15:21:46;11.38;;;1.92;;
63818;SDS011;49970;54.976;73.248;2023-07-08T15:24:13;15.95;;;3.15;;
63818;SDS011;49970;54.976;73.248;2023-07-08T15:26:41;4.00;;;2.45;;
63818;SDS011;49970;54.976;73.248;2023-07-08T15:29:16;7.82;;;2.80;;
63818;SDS011;49970;54.976;73.248;2023-07-08T15:31:46;13.50;;;2.83;;
63818;SDS011;49970;54.976;73.248;2023-07-08T15:34:16;12.55;;;2.67;;
63818;SDS011;49970;54.976;73.248;2023-07-08T15:36:45;10.93;;;2.97;;
63818;SDS011;49970;54.976;73.248;2023-07-08T15:39:11;9.02;;;3.78;;
63818;SDS011;49970;54.976;73.248;2023-07-08T15:41:41;25.17;;;3.35;;
63818;SDS011;49970;54.976;73.248;2023-07-08T15:44:09;17.95;;;2.97;;
63818;SDS011;49970;54.976;73.248;2023-07-08T15:46:37;12.23;;;2.63;;
63818;SDS011;49970;54.976;73.248;2023-07-08T15:51:43;17.33;;;2.40;;
63818;SDS011;49970;54.976;73.248;2023-07-08T15:54:10;24.23;;;4.15;;
63818;SDS011;49970;54.976;73.248;2023-07-08T15:56:37;27.60;;;4.95;;
63818;SDS011;49970;54.976;73.248;2023-07-08T15:59:05;13.82;;;4.43;;
63818;SDS011;49970;54.976;73.248;2023-07-08T16:01:34;10.27;;;3.47;;
63818;SDS011;49970;54.976;73.248;2023-07-08T16:04:01;9.07;;;3.28;;
63818;SDS011;49970;54.976;73.248;2023-07-08T16:06:27;19.08;;;3.75;;
63818;SDS011;49970;54.976;73.248;2023-07-08T16:08:53;11.73;;;3.65;;
63818;SDS011;49970;54.976;73.248;2023-07-08T16:11:27;22.92;;;3.70;;
63818;SDS011;49970;54.976;73.248;2023-07-08T16:13:56;19.95;;;4.00;;
63818;SDS011;49970;54.976;73.248;2023-07-08T16:16:23;16.90;;;4.78;;
63818;SDS011;49970;54.976;73.248;2023-07-08T16:18:51;28.42;;;5.38;;
63818;SDS011;49970;54.976;73.248;2023-07-08T16:21:17;38.00;;;6.43;;